Time;durP1;ratioP1;P1;durP2;ratioP2;P2;SDS_P1;SDS_P2;PMS_P1;PMS_P2;Temp;Humidity;BMP_temperature;BMP_pressure;BME280_temperature;BME280_humidity;BME280_pressure;Samples;Min_cycle;Max_cycle;Signal;HPM_P1;HPM_P2
2023/07/13 03:00:57;;;;;;;;;;;16.00;99.90;;;;;;5788377;23;19920;-76
2023/07/13 03:03:23;;;;;;;;;;;16.00;99.90;;;;;;5036021;28;19917;-76
2023/07/13 03:05:57;;;;;;;;;;;16.00;99.90;;;;;;5018171;28;19939;-75
2023/07/13 03:08:23;;;;;;;;;;;16.00;99.90;;;;;;5018971;28;19928;-76
2023/07/13 03:10:49;;;;;;;;;;;16.00;99.90;;;;;;5018043;28;19917;-76
2023/07/13 03:13:14;;;;;;;;;;;16.00;99.90;;;;;;5034574;28;19921;-75
2023/07/13 03:15:40;;;;;;;;;;;16.00;99.90;;;;;;5034443;28;19917;-75
2023/07/13 03:18:05;;;;;;;;;;;15.90;99.90;;;;;;5034537;28;19917;-75
2023/07/13 03:20:34;;;;;;;;;;;16.00;99.90;;;;;;5034775;28;19936;-76
2023/07/13 03:23:00;;;;;;;;;;;15.90;99.90;;;;;;5034456;28;20426;-77
2023/07/13 03:25:25;;;;;;;;;;;15.90;99.90;;;;;;5034276;28;19916;-76
2023/07/13 03:27:51;;;;;;;;;;;16.00;99.90;;;;;;5034192;28;19921;-75
2023/07/13 03:30:16;;;;;;;;;;;16.00;99.90;;;;;;5037064;28;19917;-75
2023/07/13 03:32:42;;;;;;;;;;;16.00;99.90;;;;;;5034900;28;20055;-76
2023/07/13 03:35:08;;;;;;;;;;;16.00;99.90;;;;;;5034456;28;19971;-76
2023/07/13 03:37:34;;;;;;;;;;;16.00;99.90;;;;;;5033992;28;19917;-75
2023/07/13 03:40:00;;;;;;;;;;;16.00;99.90;;;;;;5034098;28;20005;-76
2023/07/13 03:42:26;;;;;;;;;;;16.00;99.90;;;;;;5035491;28;19980;-77
2023/07/13 03:44:52;;;;;;;;;;;16.00;99.90;;;;;;5035317;28;20272;-77
2023/07/13 03:47:18;;;;;;;;;;;16.00;99.90;;;;;;5017414;28;19924;-75
2023/07/13 03:49:43;;;;;;;;;;;16.00;99.90;;;;;;5033958;28;19917;-74
2023/07/13 03:52:09;;;;;;;;;;;16.00;99.90;;;;;;5033805;28;20012;-77
2023/07/13 03:54:34;;;;;;;;;;;16.00;99.90;;;;;;5033779;28;19929;-75
2023/07/13 03:57:00;;;;;;;;;;;16.00;99.90;;;;;;5035136;28;19924;-76
2023/07/13 03:59:25;;;;;;;;;;;16.00;99.90;;;;;;5035189;28;20384;-75
2023/07/13 04:01:51;;;;;;;;;;;16.00;99.90;;;;;;5033504;28;19979;-76
2023/07/13 04:04:16;;;;;;;;;;;16.00;99.90;;;;;;5032845;28;19921;-75
2023/07/13 04:06:42;;;;;;;;;;;16.00;99.90;;;;;;5034170;28;20331;-76
2023/07/13 04:09:08;;;;;;;;;;;16.00;99.90;;;;;;5034678;28;20318;-77
2023/07/13 04:11:36;;;;;;;;;;;16.00;99.90;;;;;;5034895;28;20012;-74
2023/07/13 04:14:02;;;;;;;;;;;16.00;99.90;;;;;;5033706;28;20008;-76
2023/07/13 04:16:28;;;;;;;;;;;16.00;99.90;;;;;;5033621;28;20360;-75
2023/07/13 04:18:54;;;;;;;;;;;16.10;99.90;;;;;;5034573;28;20368;-75
2023/07/13 04:21:20;;;;;;;;;;;16.00;99.90;;;;;;5033142;28;19924;-75
2023/07/13 04:23:46;;;;;;;;;;;16.00;99.90;;;;;;5017013;28;19917;-76
2023/07/13 04:26:11;;;;;;;;;;;16.00;99.90;;;;;;5033154;28;20014;-77
2023/07/13 04:28:37;;;;;;;;;;;16.10;99.90;;;;;;5033141;28;19921;-76
2023/07/13 04:31:03;;;;;;;;;;;16.10;99.90;;;;;;5033348;28;19921;-76
2023/07/13 04:33:28;;;;;;;;;;;16.10;99.90;;;;;;5033066;28;19917;-75
2023/07/13 04:35:56;;;;;;;;;;;16.10;99.90;;;;;;5033089;28;19924;-76
2023/07/13 04:38:22;;;;;;;;;;;16.10;99.90;;;;;;5033106;28;19928;-75
2023/07/13 04:40:48;;;;;;;;;;;16.10;99.90;;;;;;5033129;28;20407;-76
2023/07/13 04:43:14;;;;;;;;;;;16.10;99.90;;;;;;5034142;28;19917;-74
2023/07/13 04:45:40;;;;;;;;;;;16.10;99.90;;;;;;5034473;28;19967;-75
2023/07/13 04:48:06;;;;;;;;;;;16.10;99.90;;;;;;5033945;28;19927;-76
2023/07/13 04:50:32;;;;;;;;;;;16.10;99.90;;;;;;5032712;28;19920;-75
2023/07/13 04:52:58;;;;;;;;;;;16.10;99.90;;;;;;5033898;28;19924;-74
2023/07/13 04:55:23;;;;;;;;;;;16.10;99.90;;;;;;5034037;28;19916;-76
2023/07/13 04:57:49;;;;;;;;;;;16.00;99.90;;;;;;5032674;28;20006;-74
2023/07/13 05:00:15;;;;;;;;;;;16.00;99.90;;;;;;5016195;28;20028;-77
2023/07/13 05:02:43;;;;;;;;;;;16.00;99.90;;;;;;5033865;28;19924;-74
2023/07/13 05:05:08;;;;;;;;;;;16.00;99.90;;;;;;5034453;28;19924;-76
2023/07/13 05:07:34;;;;;;;;;;;16.00;99.90;;;;;;5032416;28;20284;-77
2023/07/13 05:09:59;;;;;;;;;;;16.00;99.90;;;;;;5032491;28;20024;-76
2023/07/13 05:12:25;;;;;;;;;;;16.00;99.90;;;;;;5032754;28;19928;-76
2023/07/13 05:14:51;;;;;;;;;;;16.00;99.90;;;;;;5032669;28;20403;-76
2023/07/13 05:17:16;;;;;;;;;;;16.10;99.90;;;;;;5034158;28;19996;-74
2023/07/13 05:19:42;;;;;;;;;;;16.10;99.90;;;;;;5033937;28;20012;-74
2023/07/13 05:22:07;;;;;;;;;;;16.10;99.90;;;;;;5033801;28;19916;-75
2023/07/13 05:24:33;;;;;;;;;;;16.20;99.90;;;;;;5032570;28;20287;-75
2023/07/13 05:26:59;;;;;;;;;;;16.20;99.90;;;;;;5033634;28;19924;-75
2023/07/13 05:29:24;;;;;;;;;;;16.20;99.90;;;;;;5032292;28;20047;-77
2023/07/13 05:31:50;;;;;;;;;;;16.30;99.90;;;;;;5032136;28;19917;-77
2023/07/13 05:34:15;;;;;;;;;;;16.40;99.90;;;;;;5033442;28;20020;-74
2023/07/13 05:36:41;;;;;;;;;;;16.40;99.90;;;;;;5033797;28;19917;-75
2023/07/13 05:39:07;;;;;;;;;;;16.50;99.90;;;;;;5032192;28;19917;-75
2023/07/13 05:41:32;;;;;;;;;;;16.60;99.90;;;;;;5032026;28;19924;-75
2023/07/13 05:43:58;;;;;;;;;;;16.60;99.90;;;;;;5032492;28;20249;-74
2023/07/13 05:46:23;;;;;;;;;;;16.80;99.90;;;;;;5032455;28;20403;-75
2023/07/13 05:48:49;;;;;;;;;;;16.90;99.90;;;;;;5034046;28;19928;-74
2023/07/13 05:51:14;;;;;;;;;;;16.90;99.90;;;;;;5032067;28;19921;-74
2023/07/13 05:53:40;;;;;;;;;;;16.90;99.90;;;;;;5032202;28;19924;-75
2023/07/13 05:56:05;;;;;;;;;;;17.00;99.90;;;;;;5032098;28;19923;-76
2023/07/13 05:58:31;;;;;;;;;;;17.00;99.90;;;;;;5032123;28;19924;-76
2023/07/13 06:01:01;;;;;;;;;;;17.00;99.90;;;;;;5031885;28;20014;-74
2023/07/13 06:03:26;;;;;;;;;;;17.10;99.90;;;;;;5031866;28;19971;-76
2023/07/13 06:05:52;;;;;;;;;;;17.10;99.90;;;;;;5031936;28;19917;-75
2023/07/13 06:08:17;;;;;;;;;;;17.10;99.90;;;;;;5032862;28;20327;-76
2023/07/13 06:10:43;;;;;;;;;;;17.10;99.90;;;;;;5031979;28;20347;-77
2023/07/13 06:13:08;;;;;;;;;;;17.10;99.90;;;;;;5032315;28;20356;-75
2023/07/13 06:15:34;;;;;;;;;;;17.10;99.90;;;;;;5032203;28;20357;-76
2023/07/13 06:17:59;;;;;;;;;;;17.20;99.90;;;;;;5033649;28;20376;-75
2023/07/13 06:20:25;;;;;;;;;;;17.20;99.90;;;;;;5015390;28;19921;-76
2023/07/13 06:22:50;;;;;;;;;;;17.20;99.90;;;;;;5031810;28;19917;-75
2023/07/13 06:25:17;;;;;;;;;;;17.30;99.90;;;;;;5031800;28;19925;-75
2023/07/13 06:27:43;;;;;;;;;;;17.30;99.90;;;;;;5034212;28;19921;-74
2023/07/13 06:30:09;;;;;;;;;;;17.40;99.90;;;;;;5036600;28;19917;-76
2023/07/13 06:32:34;;;;;;;;;;;17.40;99.90;;;;;;5036589;28;19917;-74
2023/07/13 06:35:00;;;;;;;;;;;17.50;99.90;;;;;;5036720;28;19955;-75
2023/07/13 06:37:25;;;;;;;;;;;17.60;99.90;;;;;;5036574;28;19922;-77
2023/07/13 06:39:51;;;;;;;;;;;17.60;99.90;;;;;;5036853;28;20368;-76
2023/07/13 06:42:17;;;;;;;;;;;17.70;99.90;;;;;;5035169;28;20368;-77
2023/07/13 06:44:43;;;;;;;;;;;17.70;99.90;;;;;;5035371;28;19963;-73
2023/07/13 06:47:08;;;;;;;;;;;17.80;99.90;;;;;;5036595;28;19917;-75
2023/07/13 06:49:34;;;;;;;;;;;17.80;99.90;;;;;;5035009;28;20307;-75
2023/07/13 06:51:59;;;;;;;;;;;17.90;99.90;;;;;;5036161;28;20368;-77
2023/07/13 06:54:25;;;;;;;;;;;17.90;99.90;;;;;;5036371;28;20402;-75
2023/07/13 06:56:50;;;;;;;;;;;17.90;99.90;;;;;;5034819;28;19952;-75
2023/07/13 06:59:16;;;;;;;;;;;18.00;99.90;;;;;;5034809;28;19917;-75
2023/07/13 07:01:41;;;;;;;;;;;18.10;99.90;;;;;;5034616;28;19917;-76
2023/07/13 07:04:07;;;;;;;;;;;18.20;99.90;;;;;;5035203;28;20280;-77
2023/07/13 07:06:32;;;;;;;;;;;18.20;99.90;;;;;;5034866;28;20399;-73
2023/07/13 07:08:58;;;;;;;;;;;18.30;99.90;;;;;;5034725;28;20014;-74
2023/07/13 07:11:25;;;;;;;;;;;18.30;99.90;;;;;;5036053;28;19916;-78
2023/07/13 07:13:51;;;;;;;;;;;18.30;99.90;;;;;;5036094;28;19923;-75
2023/07/13 07:16:17;;;;;;;;;;;18.30;99.90;;;;;;5034692;28;19916;-74
2023/07/13 07:18:43;;;;;;;;;;;18.30;99.90;;;;;;5036018;28;19917;-76
2023/07/13 07:21:08;;;;;;;;;;;18.30;99.90;;;;;;5034431;28;19917;-78
2023/07/13 07:23:34;;;;;;;;;;;18.30;99.90;;;;;;5034422;28;19923;-76
2023/07/13 07:26:00;;;;;;;;;;;18.40;99.90;;;;;;5034468;28;19962;-77
2023/07/13 07:28:28;;;;;;;;;;;18.40;99.90;;;;;;5034446;28;19998;-77
2023/07/13 07:30:54;;;;;;;;;;;18.40;99.90;;;;;;5034382;28;19924;-76
2023/07/13 07:33:20;;;;;;;;;;;18.50;99.90;;;;;;5017896;28;20349;-75
2023/07/13 07:35:46;;;;;;;;;;;18.50;99.90;;;;;;5034456;28;19957;-77
2023/07/13 07:38:11;;;;;;;;;;;18.40;99.90;;;;;;5034368;28;20289;-74
2023/07/13 07:40:37;;;;;;;;;;;18.50;99.90;;;;;;5034265;28;19928;-74
2023/07/13 07:43:03;;;;;;;;;;;18.50;99.90;;;;;;5035726;28;20330;-76
2023/07/13 07:45:28;;;;;;;;;;;18.50;99.90;;;;;;5034276;28;20007;-77
2023/07/13 07:47:58;;;;;;;;;;;18.50;99.90;;;;;;5033748;28;20257;-73
2023/07/13 07:50:24;;;;;;;;;;;18.40;99.90;;;;;;5033803;28;20004;-74
2023/07/13 07:52:50;;;;;;;;;;;18.40;99.90;;;;;;5035130;28;19924;-73
2023/07/13 07:55:15;;;;;;;;;;;18.40;99.90;;;;;;5033743;28;19916;-76
2023/07/13 07:57:41;;;;;;;;;;;18.50;99.90;;;;;;5035287;28;19924;-74
2023/07/13 08:00:07;;;;;;;;;;;18.40;99.90;;;;;;5035007;28;19917;-75
2023/07/13 08:02:32;;;;;;;;;;;18.40;99.90;;;;;;5034149;28;19996;-76
2023/07/13 08:04:58;;;;;;;;;;;18.30;99.90;;;;;;5033861;28;20003;-75
2023/07/13 08:07:23;;;;;;;;;;;18.30;99.90;;;;;;5035360;28;20423;-74
2023/07/13 08:09:52;;;;;;;;;;;18.20;99.90;;;;;;5033486;28;19924;-74
2023/07/13 08:12:17;;;;;;;;;;;18.20;99.90;;;;;;5033547;28;20276;-75
2023/07/13 08:14:43;;;;;;;;;;;18.20;99.90;;;;;;5034608;28;20011;-77
2023/07/13 08:17:08;;;;;;;;;;;18.00;99.90;;;;;;5034477;28;19968;-75
2023/07/13 08:19:34;;;;;;;;;;;17.80;99.90;;;;;;5033217;28;19917;-74
2023/07/13 08:21:59;;;;;;;;;;;17.80;99.90;;;;;;5033186;28;19917;-73
2023/07/13 08:24:25;;;;;;;;;;;17.70;99.90;;;;;;5033123;28;19921;-73
2023/07/13 08:26:51;;;;;;;;;;;17.70;99.90;;;;;;5033379;28;19917;-74
2023/07/13 08:29:16;;;;;;;;;;;17.60;99.90;;;;;;5034458;28;19928;-74
2023/07/13 08:31:42;;;;;;;;;;;17.60;99.90;;;;;;5016545;28;20269;-74
2023/07/13 08:34:08;;;;;;;;;;;17.60;99.90;;;;;;5033270;28;20272;-76
2023/07/13 08:36:33;;;;;;;;;;;17.60;99.90;;;;;;5034156;28;20324;-75
2023/07/13 08:38:59;;;;;;;;;;;17.60;99.90;;;;;;5033224;28;19917;-75
2023/07/13 08:41:24;;;;;;;;;;;17.60;99.90;;;;;;5033148;28;19917;-74
2023/07/13 08:43:53;;;;;;;;;;;17.60;99.90;;;;;;5033107;28;19921;-74
2023/07/13 08:46:28;;;;;;;;;;;17.70;99.90;;;;;;5035069;28;19917;-74
2023/07/13 08:48:55;;;;;;;;;;;17.60;99.90;;;;;;5033116;28;19921;-75
2023/07/13 08:51:28;;;;;;;;;;;17.60;99.90;;;;;;5033562;28;19917;-76
2023/07/13 08:54:01;;;;;;;;;;;17.60;99.90;;;;;;5034314;28;19917;-75
2023/07/13 08:56:29;;;;;;;;;;;17.70;99.90;;;;;;5032980;28;19921;-75
2023/07/13 08:58:58;;;;;;;;;;;17.70;99.90;;;;;;5033885;28;19963;-74
2023/07/13 09:01:32;;;;;;;;;;;17.70;99.90;;;;;;5033915;28;19917;-75
2023/07/13 09:04:10;;;;;;;;;;;17.70;99.90;;;;;;5034185;28;19966;-75
2023/07/13 09:07:02;;;;;;;;;;;17.70;99.90;;;;;;5033980;28;19928;-74
2023/07/13 09:09:43;;;;;;;;;;;17.70;99.90;;;;;;5002723;28;19921;-75
2023/07/13 09:12:15;;;;;;;;;;;17.80;99.90;;;;;;5032469;28;19967;-74
2023/07/13 09:14:47;;;;;;;;;;;17.90;99.90;;;;;;5032547;28;20011;-75
2023/07/13 09:17:17;;;;;;;;;;;17.90;99.90;;;;;;5032419;28;19917;-76
2023/07/13 09:19:43;;;;;;;;;;;18.00;99.90;;;;;;5032295;28;20420;-75
2023/07/13 09:22:13;;;;;;;;;;;18.10;99.90;;;;;;5032284;28;19956;-72
2023/07/13 09:24:44;;;;;;;;;;;18.20;99.90;;;;;;5033645;28;19924;-77
2023/07/13 09:27:20;;;;;;;;;;;18.30;99.90;;;;;;5032466;28;20396;-75
2023/07/13 09:30:06;;;;;;;;;;;18.50;99.90;;;;;;5032295;28;20412;-74
2023/07/13 09:32:32;;;;;;;;;;;18.80;99.90;;;;;;5018273;28;19944;-75
2023/07/13 09:34:59;;;;;;;;;;;18.90;99.90;;;;;;5033365;28;20284;-77
2023/07/13 09:37:28;;;;;;;;;;;19.00;99.90;;;;;;5032525;28;19917;-74
2023/07/13 09:39:54;;;;;;;;;;;19.10;99.90;;;;;;5016128;28;20323;-74
2023/07/13 09:42:21;;;;;;;;;;;19.20;99.90;;;;;;5032231;28;19924;-77
2023/07/13 09:44:47;;;;;;;;;;;19.40;99.90;;;;;;5033349;28;19917;-76
2023/07/13 09:47:32;;;;;;;;;;;19.30;99.90;;;;;;5033854;28;19924;-77
2023/07/13 09:49:59;;;;;;;;;;;19.20;99.90;;;;;;5032073;28;19921;-75
2023/07/13 09:52:26;;;;;;;;;;;19.20;99.90;;;;;;5032044;28;19917;-74
2023/07/13 09:54:54;;;;;;;;;;;19.10;99.90;;;;;;5032055;28;19924;-77
2023/07/13 09:57:22;;;;;;;;;;;19.10;99.90;;;;;;5032099;28;19917;-74
2023/07/13 09:59:49;;;;;;;;;;;19.00;99.90;;;;;;5032325;28;19943;-77
2023/07/13 10:02:34;;;;;;;;;;;19.10;99.90;;;;;;5033604;28;19974;-76
2023/07/13 10:05:02;;;;;;;;;;;19.20;99.90;;;;;;5035862;28;19917;-74
2023/07/13 10:07:29;;;;;;;;;;;19.50;99.90;;;;;;5037183;28;19924;-74
2023/07/13 10:09:55;;;;;;;;;;;19.50;99.90;;;;;;5035750;28;20365;-75
2023/07/13 10:12:24;;;;;;;;;;;19.80;99.90;;;;;;5035789;28;19940;-76
2023/07/13 10:14:54;;;;;;;;;;;19.90;99.90;;;;;;5037417;28;19923;-77
2023/07/13 10:17:25;;;;;;;;;;;20.00;99.90;;;;;;5035947;28;20357;-75
2023/07/13 10:19:51;;;;;;;;;;;20.20;99.90;;;;;;5037689;28;20003;-76
2023/07/13 10:22:29;;;;;;;;;;;20.20;99.90;;;;;;5035832;28;19956;-76
2023/07/13 10:24:55;;;;;;;;;;;20.40;99.90;;;;;;5020087;28;19931;-74
2023/07/13 10:27:27;;;;;;;;;;;20.60;99.90;;;;;;5036770;28;20551;-75
2023/07/13 10:30:13;;;;;;;;;;;20.60;99.90;;;;;;5038469;28;19928;-75
2023/07/13 10:32:39;;;;;;;;;;;20.80;99.90;;;;;;5036599;28;20047;-76
2023/07/13 10:35:07;;;;;;;;;;;20.90;99.90;;;;;;5035962;28;19925;-77
2023/07/13 10:37:39;;;;;;;;;;;21.00;99.90;;;;;;5019145;28;19960;-78
2023/07/13 10:40:05;;;;;;;;;;;21.20;99.90;;;;;;5036887;28;19917;-79
2023/07/13 10:42:33;;;;;;;;;;;21.30;99.90;;;;;;5035571;28;19920;-75
2023/07/13 10:44:59;;;;;;;;;;;21.30;99.90;;;;;;5035474;28;19917;-73
2023/07/13 10:47:25;;;;;;;;;;;21.10;99.90;;;;;;5036638;28;20411;-76
2023/07/13 10:49:53;;;;;;;;;;;21.10;99.90;;;;;;5036427;28;19987;-74
2023/07/13 10:52:37;;;;;;;;;;;21.10;99.90;;;;;;5036526;28;19917;-77
2023/07/13 10:55:03;;;;;;;;;;;21.10;99.90;;;;;;5035210;28;19917;-77
2023/07/13 10:57:28;;;;;;;;;;;21.10;99.90;;;;;;5036464;28;20447;-75
2023/07/13 11:00:04;;;;;;;;;;;21.10;99.90;;;;;;5036339;28;20349;-74
2023/07/13 11:02:30;;;;;;;;;;;21.20;99.90;;;;;;5035394;28;19917;-77
2023/07/13 11:04:57;;;;;;;;;;;21.40;99.90;;;;;;5034791;28;19970;-75
2023/07/13 11:07:24;;;;;;;;;;;21.50;99.90;;;;;;5035903;28;19924;-75
2023/07/13 11:09:51;;;;;;;;;;;21.60;99.90;;;;;;5036269;28;20027;-76
2023/07/13 11:12:20;;;;;;;;;;;21.40;99.90;;;;;;5034673;28;19924;-79
2023/07/13 11:14:54;;;;;;;;;;;21.20;99.90;;;;;;5034269;28;19928;-74
2023/07/13 11:17:29;;;;;;;;;;;21.00;99.90;;;;;;5034641;28;20436;-75
2023/07/13 11:20:08;;;;;;;;;;;21.10;99.90;;;;;;5034556;28;19996;-77
2023/07/13 11:22:45;;;;;;;;;;;21.30;99.90;;;;;;5018324;28;19917;-78
2023/07/13 11:25:19;;;;;;;;;;;21.50;99.90;;;;;;5036034;28;19917;-80
2023/07/13 11:27:48;;;;;;;;;;;21.70;99.90;;;;;;5034187;28;20019;-75
2023/07/13 11:30:23;;;;;;;;;;;21.90;99.90;;;;;;5034612;28;20023;-79
2023/07/13 11:32:50;;;;;;;;;;;21.80;99.90;;;;;;5035727;28;19917;-78
2023/07/13 11:35:19;;;;;;;;;;;21.60;99.90;;;;;;5035383;28;19921;-75
2023/07/13 11:37:45;;;;;;;;;;;21.50;99.90;;;;;;5033947;28;19917;-76
2023/07/13 11:40:14;;;;;;;;;;;21.40;99.90;;;;;;5035340;28;19917;-76
2023/07/13 11:42:40;;;;;;;;;;;21.20;99.90;;;;;;5034259;28;20378;-77
2023/07/13 11:45:18;;;;;;;;;;;21.00;99.90;;;;;;5017514;28;19920;-79
2023/07/13 11:47:45;;;;;;;;;;;20.90;99.90;;;;;;5034826;28;20451;-77
2023/07/13 11:50:18;;;;;;;;;;;20.80;99.90;;;;;;5035811;28;19917;-75
2023/07/13 11:52:43;;;;;;;;;;;21.10;99.90;;;;;;5017692;28;19917;-77
2023/07/13 11:55:19;;;;;;;;;;;21.20;99.90;;;;;;5035403;28;19924;-73
2023/07/13 11:57:48;;;;;;;;;;;21.40;99.90;;;;;;5033709;28;20009;-76
2023/07/13 12:00:16;;;;;;;;;;;21.60;99.90;;;;;;5035530;28;19975;-76
2023/07/13 12:02:48;;;;;;;;;;;21.80;99.90;;;;;;5034269;28;19955;-73
2023/07/13 12:05:15;;;;;;;;;;;21.90;99.90;;;;;;5033916;28;19917;-74
2023/07/13 12:07:41;;;;;;;;;;;21.60;99.90;;;;;;5033801;28;20007;-77
2023/07/13 12:10:17;;;;;;;;;;;21.60;99.90;;;;;;5033663;28;19960;-77
2023/07/13 12:13:09;;;;;;;;;;;21.50;99.90;;;;;;5033644;28;20353;-75
2023/07/13 12:15:41;;;;;;;;;;;21.60;99.90;;;;;;5031625;28;20003;-76
2023/07/13 12:18:14;;;;;;;;;;;21.40;99.90;;;;;;5034607;28;19916;-75
2023/07/13 12:20:40;;;;;;;;;;;21.40;99.90;;;;;;5033339;28;19956;-73
2023/07/13 12:23:25;;;;;;;;;;;21.50;99.90;;;;;;5034452;28;20297;-78
2023/07/13 12:25:51;;;;;;;;;;;21.40;99.90;;;;;;5034144;28;19920;-74
2023/07/13 12:28:22;;;;;;;;;;;21.40;99.90;;;;;;5034760;28;20326;-75
2023/07/13 12:30:49;;;;;;;;;;;21.20;99.90;;;;;;5033056;28;19924;-80
2023/07/13 12:33:16;;;;;;;;;;;21.30;99.90;;;;;;5034696;28;19917;-76
2023/07/13 12:35:46;;;;;;;;;;;21.20;99.90;;;;;;5034646;28;20262;-74
2023/07/13 12:38:12;;;;;;;;;;;21.20;99.90;;;;;;5034571;28;19924;-76
2023/07/13 12:40:40;;;;;;;;;;;21.10;99.90;;;;;;5032970;28;19917;-73
2023/07/13 12:43:10;;;;;;;;;;;21.30;99.90;;;;;;5033239;28;19921;-76
2023/07/13 12:45:36;;;;;;;;;;;21.30;99.90;;;;;;5032897;28;19979;-78
2023/07/13 12:48:05;;;;;;;;;;;21.20;99.90;;;;;;5033080;28;20292;-76
2023/07/13 12:50:36;;;;;;;;;;;21.30;99.90;;;;;;5032739;28;19924;-78
2023/07/13 12:53:03;;;;;;;;;;;21.20;99.90;;;;;;5032836;28;19917;-75
2023/07/13 12:55:32;;;;;;;;;;;21.00;99.90;;;;;;5033050;28;19921;-75
2023/07/13 12:57:58;;;;;;;;;;;20.90;99.90;;;;;;5032714;28;19923;-75
2023/07/13 13:00:26;;;;;;;;;;;21.10;99.90;;;;;;5033968;28;19956;-77
2023/07/13 13:02:54;;;;;;;;;;;21.10;99.90;;;;;;5032670;28;20011;-73
2023/07/13 13:05:23;;;;;;;;;;;21.00;99.90;;;;;;5032622;28;19921;-78
2023/07/13 13:07:49;;;;;;;;;;;20.90;99.90;;;;;;5034061;28;19935;-79
2023/07/13 13:10:14;;;;;;;;;;;20.90;99.90;;;;;;5032913;28;19916;-74
2023/07/13 13:12:43;;;;;;;;;;;21.10;99.90;;;;;;5032556;28;19983;-77
2023/07/13 13:15:09;;;;;;;;;;;21.50;99.90;;;;;;5032619;28;19917;-74
2023/07/13 13:17:35;;;;;;;;;;;21.80;99.90;;;;;;5033954;28;19917;-77
2023/07/13 13:20:01;;;;;;;;;;;21.70;99.90;;;;;;5032406;28;20350;-74
2023/07/13 13:22:26;;;;;;;;;;;21.80;99.90;;;;;;5032541;28;19917;-76
2023/07/13 13:24:52;;;;;;;;;;;21.80;99.90;;;;;;5032342;28;20288;-73
2023/07/13 13:27:18;;;;;;;;;;;21.80;99.90;;;;;;5032233;28;19917;-74
2023/07/13 13:29:45;;;;;;;;;;;21.70;99.90;;;;;;5032263;28;19935;-78
2023/07/13 13:32:14;;;;;;;;;;;21.80;99.90;;;;;;5032251;28;19916;-75
2023/07/13 13:34:40;;;;;;;;;;;21.70;99.90;;;;;;5032591;28;20026;-72
2023/07/13 13:37:15;;;;;;;;;;;21.80;99.90;;;;;;5035432;28;19917;-76
2023/07/13 13:39:41;;;;;;;;;;;21.90;99.90;;;;;;5036395;28;20067;-76
2023/07/13 13:42:08;;;;;;;;;;;22.10;99.90;;;;;;5036333;28;19917;-76
2023/07/13 13:44:34;;;;;;;;;;;22.30;99.90;;;;;;5036809;28;19967;-79
2023/07/13 13:47:00;;;;;;;;;;;22.40;99.90;;;;;;5036505;28;19921;-76
2023/07/13 13:49:26;;;;;;;;;;;22.30;99.90;;;;;;5036095;28;19932;-79
2023/07/13 13:51:53;;;;;;;;;;;22.30;99.90;;;;;;5020321;28;19917;-77
2023/07/13 13:54:19;;;;;;;;;;;22.20;99.90;;;;;;5037870;28;19966;-79
2023/07/13 13:56:48;;;;;;;;;;;22.00;99.90;;;;;;5037383;28;20008;-72
2023/07/13 13:59:14;;;;;;;;;;;21.80;99.90;;;;;;5037956;28;19999;-78
2023/07/13 14:01:41;;;;;;;;;;;22.00;99.90;;;;;;5037133;28;19971;-72
2023/07/13 14:04:12;;;;;;;;;;;22.00;99.90;;;;;;5037372;28;20284;-78
2023/07/13 14:06:37;;;;;;;;;;;21.90;99.90;;;;;;5036276;28;20287;-75
2023/07/13 14:09:04;;;;;;;;;;;22.10;99.90;;;;;;5035702;28;19921;-79
2023/07/13 14:11:30;;;;;;;;;;;21.90;99.90;;;;;;5035870;28;19924;-80
2023/07/13 14:13:57;;;;;;;;;;;22.00;99.90;;;;;;5035741;28;20363;-75
2023/07/13 14:16:27;;;;;;;;;;;22.10;99.90;;;;;;5035952;28;20342;-76
2023/07/13 14:18:53;;;;;;;;;;;21.90;99.90;;;;;;5037146;28;19917;-76
2023/07/13 14:21:20;;;;;;;;;;;22.00;99.90;;;;;;5035379;28;20020;-78
2023/07/13 14:23:46;;;;;;;;;;;22.10;99.90;;;;;;5036754;28;19921;-76
2023/07/13 14:26:13;;;;;;;;;;;22.20;99.90;;;;;;5018935;28;19943;-74
2023/07/13 14:28:42;;;;;;;;;;;22.10;99.90;;;;;;5035442;28;19928;-76
2023/07/13 14:31:09;;;;;;;;;;;22.00;99.90;;;;;;5036886;28;19917;-78
2023/07/13 14:33:34;;;;;;;;;;;22.00;99.90;;;;;;5035570;28;19917;-75
2023/07/13 14:36:00;;;;;;;;;;;21.90;99.90;;;;;;5035653;28;20322;-76
2023/07/13 14:38:25;;;;;;;;;;;21.90;99.90;;;;;;5035152;28;20012;-75
2023/07/13 14:40:51;;;;;;;;;;;21.60;99.90;;;;;;5035106;28;19917;-74
2023/07/13 14:43:17;;;;;;;;;;;21.40;99.90;;;;;;5035148;28;19917;-74
2023/07/13 14:45:44;;;;;;;;;;;21.60;99.90;;;;;;5036505;28;19917;-76
2023/07/13 14:48:28;;;;;;;;;;;21.90;99.90;;;;;;5034265;28;19928;-76
2023/07/13 14:50:56;;;;;;;;;;;22.10;99.90;;;;;;5036790;28;19959;-73
2023/07/13 14:53:22;;;;;;;;;;;22.30;99.90;;;;;;5036881;28;20357;-73
2023/07/13 14:55:47;;;;;;;;;;;22.30;99.90;;;;;;5036633;28;19917;-76
2023/07/13 14:58:13;;;;;;;;;;;22.30;99.90;;;;;;5036469;28;19999;-79
2023/07/13 15:00:39;;;;;;;;;;;22.20;99.90;;;;;;5036160;28;19917;-76
2023/07/13 15:03:06;;;;;;;;;;;22.00;99.90;;;;;;5034941;28;19996;-74
2023/07/13 15:05:31;;;;;;;;;;;22.10;99.90;;;;;;5018164;28;19964;-78
2023/07/13 15:07:59;;;;;;;;;;;21.90;99.90;;;;;;5035980;28;19968;-74
2023/07/13 15:10:27;;;;;;;;;;;21.90;99.90;;;;;;5034440;28;19942;-75
2023/07/13 15:12:53;;;;;;;;;;;21.90;99.90;;;;;;5034626;28;19921;-73
2023/07/13 15:15:18;;;;;;;;;;;21.90;99.90;;;;;;5034738;28;20269;-76
2023/07/13 15:17:45;;;;;;;;;;;22.20;99.90;;;;;;5035764;28;19917;-77
2023/07/13 15:20:11;;;;;;;;;;;22.30;99.90;;;;;;5034386;28;20380;-79
2023/07/13 15:22:36;;;;;;;;;;;22.10;99.90;;;;;;5034498;28;19967;-76
2023/07/13 15:25:03;;;;;;;;;;;22.30;99.90;;;;;;5034281;28;19952;-80
2023/07/13 15:27:29;;;;;;;;;;;22.10;99.90;;;;;;5035631;28;19963;-75
2023/07/13 15:29:54;;;;;;;;;;;22.20;99.90;;;;;;5035677;28;19921;-74
2023/07/13 15:32:21;;;;;;;;;;;22.00;99.90;;;;;;5034166;28;19920;-76
2023/07/13 15:34:47;;;;;;;;;;;21.90;99.90;;;;;;5017905;28;19917;-79
2023/07/13 15:37:14;;;;;;;;;;;21.80;99.90;;;;;;5034594;28;19953;-76
2023/07/13 15:39:40;;;;;;;;;;;21.60;99.90;;;;;;5035372;28;19924;-79
2023/07/13 15:42:09;;;;;;;;;;;21.30;99.90;;;;;;5034049;28;19917;-76
2023/07/13 15:44:35;;;;;;;;;;;21.20;99.90;;;;;;5034162;28;19924;-75
2023/07/13 15:47:02;;;;;;;;;;;21.40;99.90;;;;;;5035304;28;19917;-77
2023/07/13 15:49:28;;;;;;;;;;;21.60;99.90;;;;;;5035212;28;19920;-74
2023/07/13 15:51:54;;;;;;;;;;;21.70;99.90;;;;;;5017295;28;19924;-76
2023/07/13 15:54:20;;;;;;;;;;;21.50;99.90;;;;;;5035203;28;20008;-75
2023/07/13 15:56:50;;;;;;;;;;;21.40;99.90;;;;;;5035230;28;19975;-76
2023/07/13 15:59:15;;;;;;;;;;;21.40;99.90;;;;;;5033668;28;19970;-77
2023/07/13 16:01:41;;;;;;;;;;;21.50;99.90;;;;;;5032680;28;19999;-76
2023/07/13 16:04:07;;;;;;;;;;;21.80;99.90;;;;;;5033802;28;19924;-79
2023/07/13 16:06:34;;;;;;;;;;;21.80;99.90;;;;;;5033778;28;20272;-77
2023/07/13 16:09:01;;;;;;;;;;;21.70;99.90;;;;;;5034765;28;19921;-75
2023/07/13 16:11:32;;;;;;;;;;;21.50;99.90;;;;;;5034767;28;19940;-76
2023/07/13 16:13:58;;;;;;;;;;;21.30;99.90;;;;;;5035030;28;20006;-76
2023/07/13 16:16:26;;;;;;;;;;;21.20;99.90;;;;;;5035150;28;19920;-73
2023/07/13 16:18:55;;;;;;;;;;;21.20;99.90;;;;;;5033440;28;19956;-73
2023/07/13 16:21:25;;;;;;;;;;;21.20;99.90;;;;;;5034447;28;19921;-74
2023/07/13 16:23:51;;;;;;;;;;;21.30;99.90;;;;;;5034489;28;19920;-81
2023/07/13 16:26:20;;;;;;;;;;;21.50;99.90;;;;;;5033743;28;19917;-77
2023/07/13 16:28:45;;;;;;;;;;;21.40;99.90;;;;;;5034602;28;19925;-76
2023/07/13 16:31:11;;;;;;;;;;;21.60;99.90;;;;;;5034546;28;19948;-75
2023/07/13 16:33:36;;;;;;;;;;;21.60;99.90;;;;;;5034724;28;19917;-75
2023/07/13 16:36:02;;;;;;;;;;;21.70;99.90;;;;;;5033538;28;19966;-76
2023/07/13 16:38:31;;;;;;;;;;;21.70;99.90;;;;;;5034297;28;19940;-75
2023/07/13 16:40:56;;;;;;;;;;;21.80;99.90;;;;;;5033072;28;19917;-78
2023/07/13 16:43:22;;;;;;;;;;;21.90;99.90;;;;;;5034143;28;19924;-77
2023/07/13 16:45:50;;;;;;;;;;;21.80;99.90;;;;;;5033467;28;19917;-74
2023/07/13 16:48:18;;;;;;;;;;;21.70;99.90;;;;;;5032819;28;19936;-78
2023/07/13 16:50:44;;;;;;;;;;;21.60;99.90;;;;;;5034345;28;19932;-82
2023/07/13 16:53:29;;;;;;;;;;;21.60;99.90;;;;;;5034071;28;19985;-78
2023/07/13 16:55:59;;;;;;;;;;;21.50;99.90;;;;;;5033239;28;20246;-79
2023/07/13 16:58:28;;;;;;;;;;;21.60;99.90;;;;;;5033081;28;20399;-75
2023/07/13 17:00:54;;;;;;;;;;;21.50;99.90;;;;;;5033665;28;19924;-75
2023/07/13 17:03:20;;;;;;;;;;;21.50;99.90;;;;;;5032924;28;19921;-78
2023/07/13 17:05:48;;;;;;;;;;;21.50;99.90;;;;;;5034286;28;19921;-80
2023/07/13 17:08:13;;;;;;;;;;;21.60;99.90;;;;;;5033728;28;19921;-76
2023/07/13 17:10:42;;;;;;;;;;;21.60;99.90;;;;;;5032401;28;19928;-79
2023/07/13 17:13:08;;;;;;;;;;;21.50;99.90;;;;;;5032093;28;19924;-76
2023/07/13 17:15:36;;;;;;;;;;;21.60;99.90;;;;;;5032287;28;19917;-76
2023/07/13 17:18:07;;;;;;;;;;;21.60;99.90;;;;;;5032717;28;19917;-77